sensor_id;sensor_type;location;lat;lon;timestamp;P1;durP1;ratioP1;P2;durP2;ratioP2
3000;SDS011;1510;51.072;6.678;2023-05-27T00:01:18;17.00;;;6.00;;
3000;SDS011;1510;51.072;6.678;2023-05-27T00:03:45;20.43;;;5.80;;
3000;SDS011;1510;51.072;6.678;2023-05-27T00:06:12;16.50;;;6.30;;
3000;SDS011;1510;51.072;6.678;2023-05-27T00:08:40;17.77;;;4.90;;
3000;SDS011;1510;51.072;6.678;2023-05-27T00:11:07;22.10;;;6.57;;
3000;SDS011;1510;51.072;6.678;2023-05-27T00:13:34;14.47;;;5.20;;
3000;SDS011;1510;51.072;6.678;2023-05-27T00:16:01;17.13;;;5.17;;
3000;SDS011;1510;51.072;6.678;2023-05-27T00:18:27;19.10;;;6.00;;
3000;SDS011;1510;51.072;6.678;2023-05-27T00:20:58;20.33;;;7.00;;
3000;SDS011;1510;51.072;6.678;2023-05-27T00:23:24;16.70;;;5.40;;
3000;SDS011;1510;51.072;6.678;2023-05-27T00:25:52;13.00;;;5.20;;
3000;SDS011;1510;51.072;6.678;2023-05-27T00:28:19;22.37;;;6.00;;
3000;SDS011;1510;51.072;6.678;2023-05-27T00:30:46;17.90;;;5.83;;
3000;SDS011;1510;51.072;6.678;2023-05-27T00:33:13;15.97;;;5.90;;
3000;SDS011;1510;51.072;6.678;2023-05-27T00:35:40;34.00;;;6.97;;
3000;SDS011;1510;51.072;6.678;2023-05-27T00:38:06;15.67;;;6.60;;
3000;SDS011;1510;51.072;6.678;2023-05-27T00:40:34;23.50;;;5.80;;
3000;SDS011;1510;51.072;6.678;2023-05-27T00:43:02;23.90;;;6.70;;
3000;SDS011;1510;51.072;6.678;2023-05-27T00:45:29;14.03;;;5.60;;
3000;SDS011;1510;51.072;6.678;2023-05-27T00:47:56;17.73;;;6.43;;
3000;SDS011;1510;51.072;6.678;2023-05-27T00:50:23;17.40;;;5.73;;
3000;SDS011;1510;51.072;6.678;2023-05-27T00:52:51;17.90;;;5.93;;
3000;SDS011;1510;51.072;6.678;2023-05-27T00:55:21;16.60;;;6.07;;
3000;SDS011;1510;51.072;6.678;2023-05-27T00:57:48;20.83;;;5.93;;
3000;SDS011;1510;51.072;6.678;2023-05-27T01:00:16;19.10;;;6.67;;
3000;SDS011;1510;51.072;6.678;2023-05-27T01:02:43;14.73;;;7.37;;
3000;SDS011;1510;51.072;6.678;2023-05-27T01:05:10;20.33;;;8.70;;
3000;SDS011;1510;51.072;6.678;2023-05-27T01:07:42;19.30;;;7.30;;
3000;SDS011;1510;51.072;6.678;2023-05-27T01:10:23;20.07;;;6.20;;
3000;SDS011;1510;51.072;6.678;2023-05-27T01:12:55;24.63;;;6.93;;
3000;SDS011;1510;51.072;6.678;2023-05-27T01:15:28;20.13;;;9.57;;
3000;SDS011;1510;51.072;6.678;2023-05-27T01:17:57;18.80;;;7.97;;
3000;SDS011;1510;51.072;6.678;2023-05-27T01:20:28;17.47;;;10.17;;
3000;SDS011;1510;51.072;6.678;2023-05-27T01:22:58;18.80;;;12.77;;
3000;SDS011;1510;51.072;6.678;2023-05-27T01:25:25;23.87;;;18.17;;
3000;SDS011;1510;51.072;6.678;2023-05-27T01:27:53;20.40;;;11.77;;
3000;SDS011;1510;51.072;6.678;2023-05-27T01:30:21;34.13;;;31.30;;
3000;SDS011;1510;51.072;6.678;2023-05-27T01:32:48;83.67;;;79.17;;
3000;SDS011;1510;51.072;6.678;2023-05-27T01:35:20;119.07;;;113.53;;
3000;SDS011;1510;51.072;6.678;2023-05-27T01:37:51;98.60;;;94.33;;
3000;SDS011;1510;51.072;6.678;2023-05-27T01:40:21;145.37;;;139.37;;
3000;SDS011;1510;51.072;6.678;2023-05-27T01:42:49;306.10;;;294.30;;
3000;SDS011;1510;51.072;6.678;2023-05-27T01:45:16;349.17;;;336.60;;
3000;SDS011;1510;51.072;6.678;2023-05-27T01:47:43;293.53;;;282.47;;
3000;SDS011;1510;51.072;6.678;2023-05-27T01:50:10;362.90;;;349.90;;
3000;SDS011;1510;51.072;6.678;2023-05-27T01:52:37;442.13;;;424.37;;
3000;SDS011;1510;51.072;6.678;2023-05-27T01:55:04;502.57;;;482.57;;
3000;SDS011;1510;51.072;6.678;2023-05-27T01:57:33;466.93;;;449.07;;
3000;SDS011;1510;51.072;6.678;2023-05-27T01:59:59;504.87;;;485.57;;
3000;SDS011;1510;51.072;6.678;2023-05-27T02:02:26;556.07;;;533.00;;
3000;SDS011;1510;51.072;6.678;2023-05-27T02:04:53;548.03;;;526.17;;
3000;SDS011;1510;51.072;6.678;2023-05-27T02:07:20;532.70;;;511.40;;
3000;SDS011;1510;51.072;6.678;2023-05-27T02:09:48;574.53;;;549.87;;
3000;SDS011;1510;51.072;6.678;2023-05-27T02:12:15;660.83;;;632.70;;
3000;SDS011;1510;51.072;6.678;2023-05-27T02:14:43;646.73;;;617.87;;
3000;SDS011;1510;51.072;6.678;2023-05-27T02:17:10;443.63;;;426.87;;
3000;SDS011;1510;51.072;6.678;2023-05-27T02:19:39;396.47;;;382.40;;
3000;SDS011;1510;51.072;6.678;2023-05-27T02:22:06;510.57;;;491.23;;
3000;SDS011;1510;51.072;6.678;2023-05-27T02:24:33;618.67;;;593.60;;
3000;SDS011;1510;51.072;6.678;2023-05-27T02:27:00;569.80;;;546.40;;
3000;SDS011;1510;51.072;6.678;2023-05-27T02:29:27;477.97;;;460.07;;
3000;SDS011;1510;51.072;6.678;2023-05-27T02:31:56;532.73;;;511.13;;
3000;SDS011;1510;51.072;6.678;2023-05-27T02:34:22;397.77;;;383.73;;
3000;SDS011;1510;51.072;6.678;2023-05-27T02:36:49;458.77;;;441.87;;
3000;SDS011;1510;51.072;6.678;2023-05-27T02:39:16;474.33;;;456.43;;
3000;SDS011;1510;51.072;6.678;2023-05-27T02:41:43;373.93;;;361.07;;
3000;SDS011;1510;51.072;6.678;2023-05-27T02:44:11;404.40;;;389.80;;
3000;SDS011;1510;51.072;6.678;2023-05-27T02:46:37;259.10;;;250.30;;
3000;SDS011;1510;51.072;6.678;2023-05-27T02:49:06;297.20;;;285.93;;
3000;SDS011;1510;51.072;6.678;2023-05-27T02:51:33;257.07;;;248.07;;
3000;SDS011;1510;51.072;6.678;2023-05-27T02:53:59;328.87;;;317.53;;
3000;SDS011;1510;51.072;6.678;2023-05-27T02:56:27;321.17;;;309.43;;
3000;SDS011;1510;51.072;6.678;2023-05-27T02:58:54;289.27;;;279.27;;
3000;SDS011;1510;51.072;6.678;2023-05-27T03:01:21;391.40;;;377.60;;
3000;SDS011;1510;51.072;6.678;2023-05-27T03:03:47;446.77;;;430.13;;
3000;SDS011;1510;51.072;6.678;2023-05-27T03:06:16;482.33;;;464.53;;
3000;SDS011;1510;51.072;6.678;2023-05-27T03:08:42;541.30;;;520.07;;
3000;SDS011;1510;51.072;6.678;2023-05-27T03:11:09;429.90;;;414.40;;
3000;SDS011;1510;51.072;6.678;2023-05-27T03:13:36;494.97;;;476.00;;
3000;SDS011;1510;51.072;6.678;2023-05-27T03:16:03;604.13;;;579.77;;
3000;SDS011;1510;51.072;6.678;2023-05-27T03:18:30;634.00;;;608.90;;
3000;SDS011;1510;51.072;6.678;2023-05-27T03:20:57;717.83;;;686.63;;
3000;SDS011;1510;51.072;6.678;2023-05-27T03:23:25;655.37;;;627.40;;
3000;SDS011;1510;51.072;6.678;2023-05-27T03:25:52;553.33;;;531.97;;
3000;SDS011;1510;51.072;6.678;2023-05-27T03:28:19;581.70;;;559.20;;
3000;SDS011;1510;51.072;6.678;2023-05-27T03:30:46;634.50;;;609.07;;
3000;SDS011;1510;51.072;6.678;2023-05-27T03:33:13;582.73;;;560.37;;
3000;SDS011;1510;51.072;6.678;2023-05-27T03:35:40;709.40;;;678.07;;
3000;SDS011;1510;51.072;6.678;2023-05-27T03:38:07;759.30;;;724.23;;
3000;SDS011;1510;51.072;6.678;2023-05-27T03:40:35;765.03;;;729.97;;
3000;SDS011;1510;51.072;6.678;2023-05-27T03:43:02;761.13;;;726.20;;
3000;SDS011;1510;51.072;6.678;2023-05-27T03:45:28;812.70;;;774.67;;
3000;SDS011;1510;51.072;6.678;2023-05-27T03:47:56;830.33;;;789.23;;
3000;SDS011;1510;51.072;6.678;2023-05-27T03:50:22;893.20;;;845.40;;
3000;SDS011;1510;51.072;6.678;2023-05-27T03:52:49;890.73;;;842.07;;
3000;SDS011;1510;51.072;6.678;2023-05-27T03:55:16;892.57;;;843.70;;
3000;SDS011;1510;51.072;6.678;2023-05-27T03:57:47;898.03;;;847.10;;
3000;SDS011;1510;51.072;6.678;2023-05-27T04:00:14;899.57;;;847.10;;
3000;SDS011;1510;51.072;6.678;2023-05-27T04:02:42;908.57;;;854.73;;
3000;SDS011;1510;51.072;6.678;2023-05-27T04:05:09;907.77;;;854.83;;
3000;SDS011;1510;51.072;6.678;2023-05-27T04:07:36;899.23;;;847.23;;
3000;SDS011;1510;51.072;6.678;2023-05-27T04:10:04;902.83;;;850.40;;
3000;SDS011;1510;51.072;6.678;2023-05-27T04:12:31;887.97;;;839.40;;
3000;SDS011;1510;51.072;6.678;2023-05-27T04:14:59;905.37;;;853.17;;
3000;SDS011;1510;51.072;6.678;2023-05-27T04:17:26;913.23;;;857.90;;
3000;SDS011;1510;51.072;6.678;2023-05-27T04:19:53;868.80;;;823.43;;
3000;SDS011;1510;51.072;6.678;2023-05-27T04:22:19;851.90;;;809.73;;
3000;SDS011;1510;51.072;6.678;2023-05-27T04:24:46;831.70;;;792.17;;
3000;SDS011;1510;51.072;6.678;2023-05-27T04:27:14;892.43;;;845.37;;
3000;SDS011;1510;51.072;6.678;2023-05-27T04:29:41;909.87;;;859.47;;
3000;SDS011;1510;51.072;6.678;2023-05-27T04:32:11;912.27;;;861.87;;
3000;SDS011;1510;51.072;6.678;2023-05-27T04:34:38;873.13;;;828.83;;
3000;SDS011;1510;51.072;6.678;2023-05-27T04:37:06;834.60;;;793.43;;
3000;SDS011;1510;51.072;6.678;2023-05-27T04:39:34;789.63;;;752.67;;
3000;SDS011;1510;51.072;6.678;2023-05-27T04:42:01;798.63;;;761.77;;
3000;SDS011;1510;51.072;6.678;2023-05-27T04:44:28;768.97;;;734.00;;
3000;SDS011;1510;51.072;6.678;2023-05-27T04:46:55;703.63;;;673.50;;
3000;SDS011;1510;51.072;6.678;2023-05-27T04:49:23;699.73;;;670.57;;
3000;SDS011;1510;51.072;6.678;2023-05-27T04:51:50;640.60;;;614.70;;
3000;SDS011;1510;51.072;6.678;2023-05-27T04:54:17;632.37;;;606.37;;
3000;SDS011;1510;51.072;6.678;2023-05-27T04:56:44;714.77;;;684.23;;
3000;SDS011;1510;51.072;6.678;2023-05-27T04:59:11;536.77;;;516.43;;
3000;SDS011;1510;51.072;6.678;2023-05-27T05:01:41;497.60;;;478.33;;
3000;SDS011;1510;51.072;6.678;2023-05-27T05:04:35;332.93;;;321.10;;
3000;SDS011;1510;51.072;6.678;2023-05-27T05:07:03;268.97;;;259.53;;
3000;SDS011;1510;51.072;6.678;2023-05-27T05:09:29;152.17;;;145.30;;
3000;SDS011;1510;51.072;6.678;2023-05-27T05:11:56;261.43;;;251.53;;
3000;SDS011;1510;51.072;6.678;2023-05-27T05:14:23;214.13;;;205.17;;
3000;SDS011;1510;51.072;6.678;2023-05-27T05:16:50;242.47;;;233.67;;
3000;SDS011;1510;51.072;6.678;2023-05-27T05:19:16;221.63;;;213.17;;
3000;SDS011;1510;51.072;6.678;2023-05-27T05:21:45;49.50;;;45.30;;
3000;SDS011;1510;51.072;6.678;2023-05-27T05:24:11;31.17;;;25.83;;
3000;SDS011;1510;51.072;6.678;2023-05-27T05:26:38;16.50;;;8.67;;
3000;SDS011;1510;51.072;6.678;2023-05-27T05:29:05;17.50;;;8.40;;
3000;SDS011;1510;51.072;6.678;2023-05-27T05:31:32;19.50;;;8.33;;
3000;SDS011;1510;51.072;6.678;2023-05-27T05:33:59;16.47;;;8.07;;
3000;SDS011;1510;51.072;6.678;2023-05-27T05:36:25;32.80;;;8.67;;
3000;SDS011;1510;51.072;6.678;2023-05-27T05:38:53;20.33;;;8.50;;
3000;SDS011;1510;51.072;6.678;2023-05-27T05:41:20;15.93;;;7.17;;
3000;SDS011;1510;51.072;6.678;2023-05-27T05:43:47;20.97;;;7.40;;
3000;SDS011;1510;51.072;6.678;2023-05-27T05:46:14;18.53;;;7.60;;
3000;SDS011;1510;51.072;6.678;2023-05-27T05:48:41;18.30;;;6.83;;
3000;SDS011;1510;51.072;6.678;2023-05-27T05:51:07;21.80;;;6.73;;
3000;SDS011;1510;51.072;6.678;2023-05-27T05:53:34;23.03;;;7.67;;
3000;SDS011;1510;51.072;6.678;2023-05-27T05:56:02;20.80;;;7.00;;
3000;SDS011;1510;51.072;6.678;2023-05-27T05:58:29;20.73;;;6.30;;
3000;SDS011;1510;51.072;6.678;2023-05-27T06:00:56;18.37;;;6.50;;
3000;SDS011;1510;51.072;6.678;2023-05-27T06:03:23;16.90;;;6.50;;
3000;SDS011;1510;51.072;6.678;2023-05-27T06:05:50;19.17;;;7.80;;
3000;SDS011;1510;51.072;6.678;2023-05-27T06:08:17;13.07;;;6.30;;
3000;SDS011;1510;51.072;6.678;2023-05-27T06:10:44;14.30;;;6.30;;
3000;SDS011;1510;51.072;6.678;2023-05-27T06:13:12;19.90;;;6.47;;
3000;SDS011;1510;51.072;6.678;2023-05-27T06:15:39;16.20;;;6.10;;
3000;SDS011;1510;51.072;6.678;2023-05-27T06:18:06;19.37;;;8.63;;
3000;SDS011;1510;51.072;6.678;2023-05-27T06:20:32;20.17;;;7.67;;
3000;SDS011;1510;51.072;6.678;2023-05-27T06:22:59;23.77;;;8.23;;
3000;SDS011;1510;51.072;6.678;2023-05-27T06:25:26;18.87;;;7.07;;
3000;SDS011;1510;51.072;6.678;2023-05-27T06:27:53;15.93;;;6.50;;
3000;SDS011;1510;51.072;6.678;2023-05-27T06:30:21;23.10;;;6.47;;
3000;SDS011;1510;51.072;6.678;2023-05-27T06:32:48;17.10;;;6.13;;
3000;SDS011;1510;51.072;6.678;2023-05-27T06:35:17;18.03;;;5.90;;
3000;SDS011;1510;51.072;6.678;2023-05-27T06:37:44;22.97;;;6.60;;
3000;SDS011;1510;51.072;6.678;2023-05-27T06:40:11;20.87;;;5.27;;
3000;SDS011;1510;51.072;6.678;2023-05-27T06:42:38;19.23;;;7.07;;
3000;SDS011;1510;51.072;6.678;2023-05-27T06:45:06;21.63;;;6.70;;
3000;SDS011;1510;51.072;6.678;2023-05-27T06:47:35;23.67;;;7.43;;
3000;SDS011;1510;51.072;6.678;2023-05-27T06:50:01;19.73;;;6.13;;
3000;SDS011;1510;51.072;6.678;2023-05-27T06:52:28;17.47;;;7.43;;
3000;SDS011;1510;51.072;6.678;2023-05-27T06:54:55;17.40;;;6.40;;
3000;SDS011;1510;51.072;6.678;2023-05-27T06:57:22;18.43;;;5.70;;
3000;SDS011;1510;51.072;6.678;2023-05-27T06:59:49;20.03;;;5.70;;
3000;SDS011;1510;51.072;6.678;2023-05-27T07:02:15;16.53;;;6.13;;
3000;SDS011;1510;51.072;6.678;2023-05-27T07:04:43;18.93;;;6.50;;
3000;SDS011;1510;51.072;6.678;2023-05-27T07:07:10;18.87;;;6.87;;
3000;SDS011;1510;51.072;6.678;2023-05-27T07:09:38;13.00;;;5.37;;
3000;SDS011;1510;51.072;6.678;2023-05-27T07:12:05;17.60;;;5.83;;
3000;SDS011;1510;51.072;6.678;2023-05-27T07:14:32;20.43;;;6.87;;
3000;SDS011;1510;51.072;6.678;2023-05-27T07:16:59;17.77;;;6.23;;
3000;SDS011;1510;51.072;6.678;2023-05-27T07:19:26;21.27;;;6.37;;
3000;SDS011;1510;51.072;6.678;2023-05-27T07:21:54;14.07;;;4.93;;
3000;SDS011;1510;51.072;6.678;2023-05-27T07:24:21;13.57;;;5.63;;
3000;SDS011;1510;51.072;6.678;2023-05-27T07:26:47;15.80;;;5.67;;
3000;SDS011;1510;51.072;6.678;2023-05-27T07:29:14;15.50;;;5.30;;
3000;SDS011;1510;51.072;6.678;2023-05-27T07:31:41;23.60;;;5.67;;
3000;SDS011;1510;51.072;6.678;2023-05-27T07:34:08;13.93;;;5.30;;
3000;SDS011;1510;51.072;6.678;2023-05-27T07:36:35;13.47;;;5.10;;
3000;SDS011;1510;51.072;6.678;2023-05-27T07:39:04;15.47;;;5.10;;
3000;SDS011;1510;51.072;6.678;2023-05-27T07:41:30;17.20;;;5.03;;
3000;SDS011;1510;51.072;6.678;2023-05-27T07:43:58;15.40;;;6.13;;
3000;SDS011;1510;51.072;6.678;2023-05-27T07:46:25;11.73;;;5.40;;
3000;SDS011;1510;51.072;6.678;2023-05-27T07:48:51;15.57;;;4.40;;
3000;SDS011;1510;51.072;6.678;2023-05-27T07:51:18;16.13;;;5.03;;
3000;SDS011;1510;51.072;6.678;2023-05-27T07:53:45;16.27;;;5.20;;
3000;SDS011;1510;51.072;6.678;2023-05-27T07:56:14;14.40;;;5.00;;
3000;SDS011;1510;51.072;6.678;2023-05-27T07:58:41;14.70;;;4.00;;
3000;SDS011;1510;51.072;6.678;2023-05-27T08:01:07;13.10;;;4.90;;
3000;SDS011;1510;51.072;6.678;2023-05-27T08:03:34;21.03;;;5.07;;
3000;SDS011;1510;51.072;6.678;2023-05-27T08:06:01;11.50;;;4.20;;
3000;SDS011;1510;51.072;6.678;2023-05-27T08:08:28;14.57;;;4.30;;
3000;SDS011;1510;51.072;6.678;2023-05-27T08:10:56;12.80;;;4.60;;
3000;SDS011;1510;51.072;6.678;2023-05-27T08:13:24;12.77;;;4.80;;
3000;SDS011;1510;51.072;6.678;2023-05-27T08:15:51;15.37;;;4.40;;
3000;SDS011;1510;51.072;6.678;2023-05-27T08:18:17;14.90;;;4.50;;
3000;SDS011;1510;51.072;6.678;2023-05-27T08:20:44;14.30;;;5.00;;
3000;SDS011;1510;51.072;6.678;2023-05-27T08:23:11;13.60;;;4.60;;
3000;SDS011;1510;51.072;6.678;2023-05-27T08:25:38;16.60;;;5.00;;
3000;SDS011;1510;51.072;6.678;2023-05-27T08:28:05;16.43;;;5.93;;
3000;SDS011;1510;51.072;6.678;2023-05-27T08:30:33;12.63;;;5.03;;
3000;SDS011;1510;51.072;6.678;2023-05-27T08:33:00;14.40;;;4.67;;
3000;SDS011;1510;51.072;6.678;2023-05-27T08:35:27;20.10;;;5.40;;
3000;SDS011;1510;51.072;6.678;2023-05-27T08:37:53;13.37;;;4.80;;
3000;SDS011;1510;51.072;6.678;2023-05-27T08:40:20;14.27;;;4.20;;
3000;SDS011;1510;51.072;6.678;2023-05-27T08:42:47;13.53;;;4.50;;
3000;SDS011;1510;51.072;6.678;2023-05-27T08:45:14;19.43;;;5.80;;
3000;SDS011;1510;51.072;6.678;2023-05-27T08:47:43;14.40;;;4.73;;
3000;SDS011;1510;51.072;6.678;2023-05-27T08:50:10;13.33;;;4.30;;
3000;SDS011;1510;51.072;6.678;2023-05-27T08:52:38;18.43;;;5.30;;
3000;SDS011;1510;51.072;6.678;2023-05-27T08:55:16;18.23;;;4.87;;
3000;SDS011;1510;51.072;6.678;2023-05-27T08:57:46;18.83;;;5.17;;
3000;SDS011;1510;51.072;6.678;2023-05-27T09:00:16;21.60;;;5.70;;
3000;SDS011;1510;51.072;6.678;2023-05-27T09:02:44;18.30;;;5.73;;
3000;SDS011;1510;51.072;6.678;2023-05-27T09:05:11;15.60;;;6.63;;
3000;SDS011;1510;51.072;6.678;2023-05-27T09:07:39;16.23;;;5.90;;
3000;SDS011;1510;51.072;6.678;2023-05-27T09:10:06;18.27;;;8.30;;
3000;SDS011;1510;51.072;6.678;2023-05-27T09:12:33;19.30;;;6.30;;
3000;SDS011;1510;51.072;6.678;2023-05-27T09:15:01;13.73;;;6.30;;
3000;SDS011;1510;51.072;6.678;2023-05-27T09:17:29;15.67;;;6.37;;
3000;SDS011;1510;51.072;6.678;2023-05-27T09:19:57;14.93;;;6.20;;
3000;SDS011;1510;51.072;6.678;2023-05-27T09:22:24;15.60;;;6.77;;
3000;SDS011;1510;51.072;6.678;2023-05-27T09:24:52;14.63;;;5.50;;
3000;SDS011;1510;51.072;6.678;2023-05-27T09:27:23;12.60;;;5.23;;
3000;SDS011;1510;51.072;6.678;2023-05-27T09:29:51;13.73;;;5.00;;
3000;SDS011;1510;51.072;6.678;2023-05-27T09:32:25;11.90;;;4.60;;
3000;SDS011;1510;51.072;6.678;2023-05-27T09:34:53;15.67;;;5.80;;
3000;SDS011;1510;51.072;6.678;2023-05-27T09:37:23;17.00;;;4.90;;
3000;SDS011;1510;51.072;6.678;2023-05-27T09:39:51;14.13;;;5.23;;
3000;SDS011;1510;51.072;6.678;2023-05-27T09:42:18;15.73;;;4.88;;
3000;SDS011;1510;51.072;6.678;2023-05-27T09:44:46;10.70;;;3.70;;
3000;SDS011;1510;51.072;6.678;2023-05-27T09:47:14;17.60;;;4.87;;
3000;SDS011;1510;51.072;6.678;2023-05-27T09:49:43;13.23;;;4.30;;
3000;SDS011;1510;51.072;6.678;2023-05-27T09:52:13;13.60;;;5.50;;
3000;SDS011;1510;51.072;6.678;2023-05-27T09:54:45;16.63;;;6.03;;
3000;SDS011;1510;51.072;6.678;2023-05-27T09:57:13;14.97;;;4.40;;
3000;SDS011;1510;51.072;6.678;2023-05-27T09:59:42;10.73;;;3.80;;
3000;SDS011;1510;51.072;6.678;2023-05-27T10:02:11;14.23;;;4.50;;
3000;SDS011;1510;51.072;6.678;2023-05-27T10:04:43;9.80;;;4.10;;
3000;SDS011;1510;51.072;6.678;2023-05-27T10:07:10;12.10;;;3.70;;
3000;SDS011;1510;51.072;6.678;2023-05-27T10:09:38;18.17;;;5.33;;
3000;SDS011;1510;51.072;6.678;2023-05-27T10:12:06;10.90;;;4.57;;
3000;SDS011;1510;51.072;6.678;2023-05-27T10:14:35;12.30;;;4.53;;
3000;SDS011;1510;51.072;6.678;2023-05-27T10:17:03;19.00;;;4.50;;
3000;SDS011;1510;51.072;6.678;2023-05-27T10:19:30;13.83;;;5.10;;
3000;SDS011;1510;51.072;6.678;2023-05-27T10:22:06;13.10;;;4.70;;
3000;SDS011;1510;51.072;6.678;2023-05-27T10:24:33;14.57;;;4.37;;
3000;SDS011;1510;51.072;6.678;2023-05-27T10:27:00;15.47;;;5.30;;
3000;SDS011;1510;51.072;6.678;2023-05-27T10:29:36;15.43;;;5.40;;
3000;SDS011;1510;51.072;6.678;2023-05-27T10:32:03;12.60;;;4.67;;
3000;SDS011;1510;51.072;6.678;2023-05-27T10:34:33;17.60;;;5.43;;
3000;SDS011;1510;51.072;6.678;2023-05-27T10:37:00;13.67;;;4.90;;
3000;SDS011;1510;51.072;6.678;2023-05-27T10:39:27;17.33;;;4.90;;
3000;SDS011;1510;51.072;6.678;2023-05-27T10:41:55;13.93;;;5.23;;
3000;SDS011;1510;51.072;6.678;2023-05-27T10:44:26;17.07;;;5.20;;
3000;SDS011;1510;51.072;6.678;2023-05-27T10:46:59;16.00;;;5.53;;
3000;SDS011;1510;51.072;6.678;2023-05-27T10:49:27;16.37;;;5.33;;
3000;SDS011;1510;51.072;6.678;2023-05-27T10:52:00;18.67;;;5.67;;
3000;SDS011;1510;51.072;6.678;2023-05-27T10:54:33;20.77;;;5.67;;
3000;SDS011;1510;51.072;6.678;2023-05-27T10:57:01;15.33;;;5.60;;
3000;SDS011;1510;51.072;6.678;2023-05-27T10:59:29;9.13;;;4.83;;
3000;SDS011;1510;51.072;6.678;2023-05-27T11:02:07;11.80;;;4.97;;
3000;SDS011;1510;51.072;6.678;2023-05-27T11:04:34;14.50;;;5.37;;
3000;SDS011;1510;51.072;6.678;2023-05-27T11:07:01;14.33;;;5.57;;
3000;SDS011;1510;51.072;6.678;2023-05-27T11:09:28;13.80;;;5.47;;
3000;SDS011;1510;51.072;6.678;2023-05-27T11:11:55;13.27;;;5.17;;
3000;SDS011;1510;51.072;6.678;2023-05-27T11:14:22;13.03;;;5.27;;
3000;SDS011;1510;51.072;6.678;2023-05-27T11:16:49;13.80;;;5.80;;
3000;SDS011;1510;51.072;6.678;2023-05-27T11:19:18;14.10;;;5.17;;
3000;SDS011;1510;51.072;6.678;2023-05-27T11:21:46;14.17;;;5.03;;
3000;SDS011;1510;51.072;6.678;2023-05-27T11:24:14;13.20;;;4.97;;
3000;SDS011;1510;51.072;6.678;2023-05-27T11:26:42;17.03;;;5.90;;
3000;SDS011;1510;51.072;6.678;2023-05-27T11:29:11;12.40;;;5.20;;
3000;SDS011;1510;51.072;6.678;2023-05-27T11:31:38;15.80;;;5.33;;
3000;SDS011;1510;51.072;6.678;2023-05-27T11:34:11;14.67;;;5.80;;
3000;SDS011;1510;51.072;6.678;2023-05-27T11:36:40;14.10;;;5.37;;
3000;SDS011;1510;51.072;6.678;2023-05-27T11:39:10;15.87;;;5.97;;
3000;SDS011;1510;51.072;6.678;2023-05-27T11:41:47;11.93;;;5.00;;
3000;SDS011;1510;51.072;6.678;2023-05-27T11:44:14;16.37;;;5.47;;
3000;SDS011;1510;51.072;6.678;2023-05-27T11:46:42;11.30;;;4.10;;
3000;SDS011;1510;51.072;6.678;2023-05-27T11:49:10;13.50;;;5.10;;
3000;SDS011;1510;51.072;6.678;2023-05-27T11:51:40;13.47;;;4.23;;
3000;SDS011;1510;51.072;6.678;2023-05-27T11:54:14;17.30;;;5.50;;
3000;SDS011;1510;51.072;6.678;2023-05-27T11:56:43;16.73;;;5.27;;
3000;SDS011;1510;51.072;6.678;2023-05-27T11:59:10;17.53;;;5.37;;
3000;SDS011;1510;51.072;6.678;2023-05-27T12:01:37;12.17;;;4.03;;
3000;SDS011;1510;51.072;6.678;2023-05-27T12:04:03;16.20;;;5.43;;
3000;SDS011;1510;51.072;6.678;2023-05-27T12:06:31;18.10;;;5.90;;
3000;SDS011;1510;51.072;6.678;2023-05-27T12:08:59;12.30;;;4.93;;
3000;SDS011;1510;51.072;6.678;2023-05-27T12:11:25;15.07;;;4.93;;
3000;SDS011;1510;51.072;6.678;2023-05-27T12:13:53;10.87;;;4.90;;
3000;SDS011;1510;51.072;6.678;2023-05-27T12:16:20;13.07;;;5.20;;
3000;SDS011;1510;51.072;6.678;2023-05-27T12:18:46;14.47;;;5.17;;
3000;SDS011;1510;51.072;6.678;2023-05-27T12:21:14;17.33;;;5.40;;
3000;SDS011;1510;51.072;6.678;2023-05-27T12:23:41;14.90;;;4.70;;
3000;SDS011;1510;51.072;6.678;2023-05-27T12:26:09;15.37;;;4.73;;
3000;SDS011;1510;51.072;6.678;2023-05-27T12:28:38;12.73;;;4.73;;
3000;SDS011;1510;51.072;6.678;2023-05-27T12:31:05;12.27;;;4.83;;
3000;SDS011;1510;51.072;6.678;2023-05-27T12:33:32;13.03;;;4.73;;
3000;SDS011;1510;51.072;6.678;2023-05-27T12:35:59;13.07;;;4.83;;
3000;SDS011;1510;51.072;6.678;2023-05-27T12:38:27;12.80;;;4.93;;
3000;SDS011;1510;51.072;6.678;2023-05-27T12:40:53;12.37;;;4.40;;
3000;SDS011;1510;51.072;6.678;2023-05-27T12:43:23;10.90;;;4.70;;
3000;SDS011;1510;51.072;6.678;2023-05-27T12:45:50;18.10;;;5.23;;
3000;SDS011;1510;51.072;6.678;2023-05-27T12:48:17;11.73;;;3.63;;
3000;SDS011;1510;51.072;6.678;2023-05-27T12:50:45;10.80;;;4.30;;
3000;SDS011;1510;51.072;6.678;2023-05-27T12:53:12;13.73;;;4.33;;
3000;SDS011;1510;51.072;6.678;2023-05-27T12:55:39;10.87;;;3.93;;
3000;SDS011;1510;51.072;6.678;2023-05-27T12:58:06;17.43;;;4.93;;
3000;SDS011;1510;51.072;6.678;2023-05-27T13:00:34;16.77;;;5.27;;
3000;SDS011;1510;51.072;6.678;2023-05-27T13:03:00;11.90;;;4.30;;
3000;SDS011;1510;51.072;6.678;2023-05-27T13:05:27;11.67;;;4.33;;
3000;SDS011;1510;51.072;6.678;2023-05-27T13:07:55;12.00;;;4.43;;
3000;SDS011;1510;51.072;6.678;2023-05-27T13:10:24;14.60;;;5.03;;
3000;SDS011;1510;51.072;6.678;2023-05-27T13:12:51;10.13;;;4.03;;
3000;SDS011;1510;51.072;6.678;2023-05-27T13:15:18;11.80;;;3.93;;
3000;SDS011;1510;51.072;6.678;2023-05-27T13:17:48;9.60;;;3.90;;
3000;SDS011;1510;51.072;6.678;2023-05-27T13:20:17;10.43;;;3.90;;
3000;SDS011;1510;51.072;6.678;2023-05-27T13:22:44;15.23;;;4.70;;
3000;SDS011;1510;51.072;6.678;2023-05-27T13:25:13;12.10;;;4.23;;
3000;SDS011;1510;51.072;6.678;2023-05-27T13:27:40;14.80;;;4.53;;
3000;SDS011;1510;51.072;6.678;2023-05-27T13:30:10;10.93;;;3.90;;
3000;SDS011;1510;51.072;6.678;2023-05-27T13:32:38;10.23;;;3.93;;
3000;SDS011;1510;51.072;6.678;2023-05-27T13:35:07;14.80;;;4.33;;
3000;SDS011;1510;51.072;6.678;2023-05-27T13:37:35;12.30;;;4.33;;
3000;SDS011;1510;51.072;6.678;2023-05-27T13:40:03;8.30;;;3.70;;
3000;SDS011;1510;51.072;6.678;2023-05-27T13:42:30;9.93;;;3.90;;
3000;SDS011;1510;51.072;6.678;2023-05-27T13:44:57;17.30;;;4.57;;
3000;SDS011;1510;51.072;6.678;2023-05-27T13:47:24;27.27;;;4.10;;
3000;SDS011;1510;51.072;6.678;2023-05-27T13:49:51;13.67;;;4.70;;
3000;SDS011;1510;51.072;6.678;2023-05-27T13:52:19;14.13;;;4.60;;
3000;SDS011;1510;51.072;6.678;2023-05-27T13:54:46;13.37;;;4.37;;
3000;SDS011;1510;51.072;6.678;2023-05-27T13:57:13;11.33;;;4.77;;
3000;SDS011;1510;51.072;6.678;2023-05-27T13:59:40;19.47;;;5.63;;
3000;SDS011;1510;51.072;6.678;2023-05-27T14:02:07;12.27;;;4.67;;
3000;SDS011;1510;51.072;6.678;2023-05-27T14:04:34;15.60;;;4.90;;
3000;SDS011;1510;51.072;6.678;2023-05-27T14:07:03;13.70;;;4.73;;
3000;SDS011;1510;51.072;6.678;2023-05-27T14:09:45;10.10;;;3.90;;
3000;SDS011;1510;51.072;6.678;2023-05-27T14:12:12;12.83;;;4.80;;
3000;SDS011;1510;51.072;6.678;2023-05-27T14:14:38;10.87;;;4.60;;
3000;SDS011;1510;51.072;6.678;2023-05-27T14:17:06;14.80;;;5.10;;
3000;SDS011;1510;51.072;6.678;2023-05-27T14:19:33;10.83;;;4.60;;
3000;SDS011;1510;51.072;6.678;2023-05-27T14:22:00;11.50;;;4.30;;
3000;SDS011;1510;51.072;6.678;2023-05-27T14:24:26;11.03;;;4.93;;
3000;SDS011;1510;51.072;6.678;2023-05-27T14:26:55;11.00;;;4.07;;
3000;SDS011;1510;51.072;6.678;2023-05-27T14:29:22;11.23;;;4.13;;
3000;SDS011;1510;51.072;6.678;2023-05-27T14:31:50;17.87;;;5.20;;
3000;SDS011;1510;51.072;6.678;2023-05-27T14:34:17;11.83;;;4.23;;
3000;SDS011;1510;51.072;6.678;2023-05-27T14:36:43;10.67;;;4.63;;
3000;SDS011;1510;51.072;6.678;2023-05-27T14:39:10;12.13;;;4.70;;
3000;SDS011;1510;51.072;6.678;2023-05-27T14:41:37;12.90;;;4.60;;
3000;SDS011;1510;51.072;6.678;2023-05-27T14:44:05;13.60;;;5.07;;
3000;SDS011;1510;51.072;6.678;2023-05-27T14:46:32;11.13;;;4.27;;
3000;SDS011;1510;51.072;6.678;2023-05-27T14:48:59;14.17;;;5.20;;
3000;SDS011;1510;51.072;6.678;2023-05-27T14:51:26;12.50;;;4.90;;
3000;SDS011;1510;51.072;6.678;2023-05-27T14:53:53;20.13;;;5.20;;